sensor_id;sensor_type;location;lat;lon;timestamp;P1;durP1;ratioP1;P2;durP2;ratioP2
16113;SDS011;8161;-33.910;151.156;2024-02-28T00:01:17;12.32;;;2.78;;
16113;SDS011;8161;-33.910;151.156;2024-02-28T00:03:44;11.63;;;2.90;;
16113;SDS011;8161;-33.910;151.156;2024-02-28T00:06:12;14.45;;;3.20;;
16113;SDS011;8161;-33.910;151.156;2024-02-28T00:08:41;14.48;;;3.30;;
16113;SDS011;8161;-33.910;151.156;2024-02-28T00:11:10;17.38;;;3.70;;
16113;SDS011;8161;-33.910;151.156;2024-02-28T00:13:37;11.95;;;3.00;;
16113;SDS011;8161;-33.910;151.156;2024-02-28T00:16:04;14.27;;;3.00;;
16113;SDS011;8161;-33.910;151.156;2024-02-28T00:18:32;15.75;;;3.20;;
16113;SDS011;8161;-33.910;151.156;2024-02-28T00:20:59;15.68;;;3.45;;
16113;SDS011;8161;-33.910;151.156;2024-02-28T00:23:26;15.10;;;4.07;;
16113;SDS011;8161;-33.910;151.156;2024-02-28T00:25:53;16.58;;;3.22;;
16113;SDS011;8161;-33.910;151.156;2024-02-28T00:28:21;14.52;;;3.20;;
16113;SDS011;8161;-33.910;151.156;2024-02-28T00:30:48;11.90;;;3.07;;
16113;SDS011;8161;-33.910;151.156;2024-02-28T00:33:15;10.43;;;2.60;;
16113;SDS011;8161;-33.910;151.156;2024-02-28T00:35:43;16.60;;;3.58;;
16113;SDS011;8161;-33.910;151.156;2024-02-28T00:38:10;15.55;;;3.70;;
16113;SDS011;8161;-33.910;151.156;2024-02-28T00:40:37;12.48;;;3.60;;
16113;SDS011;8161;-33.910;151.156;2024-02-28T00:43:05;13.10;;;3.28;;
16113;SDS011;8161;-33.910;151.156;2024-02-28T00:45:32;15.70;;;3.10;;
16113;SDS011;8161;-33.910;151.156;2024-02-28T00:47:59;14.52;;;3.30;;
16113;SDS011;8161;-33.910;151.156;2024-02-28T00:50:27;14.02;;;3.28;;
16113;SDS011;8161;-33.910;151.156;2024-02-28T00:52:54;9.93;;;3.28;;
16113;SDS011;8161;-33.910;151.156;2024-02-28T00:55:30;18.20;;;3.83;;
16113;SDS011;8161;-33.910;151.156;2024-02-28T00:57:58;13.38;;;3.17;;
16113;SDS011;8161;-33.910;151.156;2024-02-28T01:00:25;13.07;;;2.97;;
16113;SDS011;8161;-33.910;151.156;2024-02-28T01:02:52;14.15;;;3.80;;
16113;SDS011;8161;-33.910;151.156;2024-02-28T01:05:19;13.10;;;3.35;;
16113;SDS011;8161;-33.910;151.156;2024-02-28T01:07:46;14.15;;;3.20;;
16113;SDS011;8161;-33.910;151.156;2024-02-28T01:10:14;13.90;;;3.30;;
16113;SDS011;8161;-33.910;151.156;2024-02-28T01:12:44;12.65;;;3.03;;
16113;SDS011;8161;-33.910;151.156;2024-02-28T01:15:11;18.05;;;3.88;;
16113;SDS011;8161;-33.910;151.156;2024-02-28T01:17:38;14.70;;;3.60;;
16113;SDS011;8161;-33.910;151.156;2024-02-28T01:20:06;10.20;;;2.80;;
16113;SDS011;8161;-33.910;151.156;2024-02-28T01:22:34;13.52;;;3.22;;
16113;SDS011;8161;-33.910;151.156;2024-02-28T01:25:04;14.00;;;3.08;;
16113;SDS011;8161;-33.910;151.156;2024-02-28T01:27:32;15.38;;;3.20;;
16113;SDS011;8161;-33.910;151.156;2024-02-28T01:30:00;15.07;;;3.40;;
16113;SDS011;8161;-33.910;151.156;2024-02-28T01:32:29;18.70;;;3.63;;
16113;SDS011;8161;-33.910;151.156;2024-02-28T01:34:56;12.93;;;3.10;;
16113;SDS011;8161;-33.910;151.156;2024-02-28T01:37:23;14.70;;;3.47;;
16113;SDS011;8161;-33.910;151.156;2024-02-28T01:39:51;12.15;;;3.10;;
16113;SDS011;8161;-33.910;151.156;2024-02-28T01:42:18;9.85;;;3.00;;
16113;SDS011;8161;-33.910;151.156;2024-02-28T01:44:46;11.40;;;2.60;;
16113;SDS011;8161;-33.910;151.156;2024-02-28T01:47:14;12.63;;;2.80;;
16113;SDS011;8161;-33.910;151.156;2024-02-28T01:49:42;13.93;;;2.95;;
16113;SDS011;8161;-33.910;151.156;2024-02-28T01:52:12;16.42;;;3.33;;
16113;SDS011;8161;-33.910;151.156;2024-02-28T01:54:40;17.00;;;3.10;;
16113;SDS011;8161;-33.910;151.156;2024-02-28T01:57:08;14.40;;;2.80;;
16113;SDS011;8161;-33.910;151.156;2024-02-28T01:59:36;13.38;;;3.30;;
16113;SDS011;8161;-33.910;151.156;2024-02-28T02:02:03;9.82;;;2.85;;
16113;SDS011;8161;-33.910;151.156;2024-02-28T02:04:32;15.52;;;3.22;;
16113;SDS011;8161;-33.910;151.156;2024-02-28T02:06:59;12.98;;;3.08;;
16113;SDS011;8161;-33.910;151.156;2024-02-28T02:09:26;13.77;;;3.43;;
16113;SDS011;8161;-33.910;151.156;2024-02-28T02:11:53;14.38;;;3.20;;
16113;SDS011;8161;-33.910;151.156;2024-02-28T02:14:21;12.07;;;3.05;;
16113;SDS011;8161;-33.910;151.156;2024-02-28T02:16:48;11.85;;;3.28;;
16113;SDS011;8161;-33.910;151.156;2024-02-28T02:19:15;12.38;;;2.97;;
16113;SDS011;8161;-33.910;151.156;2024-02-28T02:22:03;14.93;;;4.00;;
16113;SDS011;8161;-33.910;151.156;2024-02-28T02:24:31;15.20;;;3.33;;
16113;SDS011;8161;-33.910;151.156;2024-02-28T02:26:58;13.27;;;3.00;;
16113;SDS011;8161;-33.910;151.156;2024-02-28T02:29:27;13.50;;;3.85;;
16113;SDS011;8161;-33.910;151.156;2024-02-28T02:31:54;12.18;;;3.30;;
16113;SDS011;8161;-33.910;151.156;2024-02-28T02:34:21;18.42;;;4.30;;
16113;SDS011;8161;-33.910;151.156;2024-02-28T02:36:49;19.63;;;3.58;;
16113;SDS011;8161;-33.910;151.156;2024-02-28T02:39:16;14.25;;;3.20;;
16113;SDS011;8161;-33.910;151.156;2024-02-28T02:41:43;15.82;;;3.30;;
16113;SDS011;8161;-33.910;151.156;2024-02-28T02:44:10;12.98;;;2.72;;
16113;SDS011;8161;-33.910;151.156;2024-02-28T02:46:38;13.95;;;3.42;;
16113;SDS011;8161;-33.910;151.156;2024-02-28T02:49:05;12.00;;;3.05;;
16113;SDS011;8161;-33.910;151.156;2024-02-28T02:51:32;10.85;;;3.30;;
16113;SDS011;8161;-33.910;151.156;2024-02-28T02:53:59;12.52;;;3.35;;
16113;SDS011;8161;-33.910;151.156;2024-02-28T02:56:27;12.43;;;3.43;;
16113;SDS011;8161;-33.910;151.156;2024-02-28T02:58:54;15.60;;;3.40;;
16113;SDS011;8161;-33.910;151.156;2024-02-28T03:01:21;10.07;;;2.83;;
16113;SDS011;8161;-33.910;151.156;2024-02-28T03:03:48;11.73;;;3.17;;
16113;SDS011;8161;-33.910;151.156;2024-02-28T03:06:16;14.25;;;3.38;;
16113;SDS011;8161;-33.910;151.156;2024-02-28T03:08:43;13.55;;;3.15;;
16113;SDS011;8161;-33.910;151.156;2024-02-28T03:11:11;16.17;;;2.97;;
16113;SDS011;8161;-33.910;151.156;2024-02-28T03:13:38;13.90;;;3.47;;
16113;SDS011;8161;-33.910;151.156;2024-02-28T03:16:05;12.18;;;3.05;;
16113;SDS011;8161;-33.910;151.156;2024-02-28T03:18:33;12.10;;;3.40;;
16113;SDS011;8161;-33.910;151.156;2024-02-28T03:21:00;16.90;;;3.67;;
16113;SDS011;8161;-33.910;151.156;2024-02-28T03:23:27;12.38;;;3.17;;
16113;SDS011;8161;-33.910;151.156;2024-02-28T03:25:55;11.70;;;2.85;;
16113;SDS011;8161;-33.910;151.156;2024-02-28T03:28:22;10.68;;;3.05;;
16113;SDS011;8161;-33.910;151.156;2024-02-28T03:30:49;13.88;;;2.95;;
16113;SDS011;8161;-33.910;151.156;2024-02-28T03:33:16;13.85;;;3.13;;
16113;SDS011;8161;-33.910;151.156;2024-02-28T03:35:43;13.60;;;3.65;;
16113;SDS011;8161;-33.910;151.156;2024-02-28T03:38:11;12.35;;;2.97;;
16113;SDS011;8161;-33.910;151.156;2024-02-28T03:40:38;16.35;;;3.38;;
16113;SDS011;8161;-33.910;151.156;2024-02-28T03:43:05;13.57;;;3.17;;
16113;SDS011;8161;-33.910;151.156;2024-02-28T03:45:36;15.02;;;3.60;;
16113;SDS011;8161;-33.910;151.156;2024-02-28T03:48:07;10.57;;;2.87;;
16113;SDS011;8161;-33.910;151.156;2024-02-28T03:50:34;15.25;;;4.10;;
16113;SDS011;8161;-33.910;151.156;2024-02-28T03:53:04;14.95;;;3.35;;
16113;SDS011;8161;-33.910;151.156;2024-02-28T03:55:31;15.48;;;3.40;;
16113;SDS011;8161;-33.910;151.156;2024-02-28T03:57:58;11.00;;;3.13;;
16113;SDS011;8161;-33.910;151.156;2024-02-28T04:00:26;14.75;;;2.83;;
16113;SDS011;8161;-33.910;151.156;2024-02-28T04:02:53;13.25;;;2.95;;
16113;SDS011;8161;-33.910;151.156;2024-02-28T04:05:20;13.60;;;3.17;;
16113;SDS011;8161;-33.910;151.156;2024-02-28T04:07:48;12.15;;;3.00;;
16113;SDS011;8161;-33.910;151.156;2024-02-28T04:10:15;11.00;;;2.90;;
16113;SDS011;8161;-33.910;151.156;2024-02-28T04:12:43;11.50;;;3.28;;
16113;SDS011;8161;-33.910;151.156;2024-02-28T04:15:13;15.57;;;3.70;;
16113;SDS011;8161;-33.910;151.156;2024-02-28T04:17:40;12.03;;;3.13;;
16113;SDS011;8161;-33.910;151.156;2024-02-28T04:20:10;13.00;;;3.38;;
16113;SDS011;8161;-33.910;151.156;2024-02-28T04:22:38;12.40;;;2.80;;
16113;SDS011;8161;-33.910;151.156;2024-02-28T04:25:07;11.93;;;2.67;;
16113;SDS011;8161;-33.910;151.156;2024-02-28T04:27:36;11.23;;;2.92;;
16113;SDS011;8161;-33.910;151.156;2024-02-28T04:30:06;12.60;;;3.07;;
16113;SDS011;8161;-33.910;151.156;2024-02-28T04:32:36;10.50;;;3.10;;
16113;SDS011;8161;-33.910;151.156;2024-02-28T04:35:03;12.73;;;3.03;;
16113;SDS011;8161;-33.910;151.156;2024-02-28T04:37:32;14.80;;;3.22;;
16113;SDS011;8161;-33.910;151.156;2024-02-28T04:40:00;13.70;;;3.07;;
16113;SDS011;8161;-33.910;151.156;2024-02-28T04:42:29;13.17;;;2.90;;
16113;SDS011;8161;-33.910;151.156;2024-02-28T04:44:56;15.18;;;3.83;;
16113;SDS011;8161;-33.910;151.156;2024-02-28T04:47:23;13.02;;;3.42;;
16113;SDS011;8161;-33.910;151.156;2024-02-28T04:49:50;10.75;;;3.40;;
16113;SDS011;8161;-33.910;151.156;2024-02-28T04:52:17;10.38;;;3.35;;
16113;SDS011;8161;-33.910;151.156;2024-02-28T04:54:45;15.25;;;3.72;;
16113;SDS011;8161;-33.910;151.156;2024-02-28T04:57:12;12.47;;;3.03;;
16113;SDS011;8161;-33.910;151.156;2024-02-28T04:59:41;12.88;;;2.97;;
16113;SDS011;8161;-33.910;151.156;2024-02-28T05:02:10;13.10;;;3.10;;
16113;SDS011;8161;-33.910;151.156;2024-02-28T05:04:37;15.90;;;3.73;;
16113;SDS011;8161;-33.910;151.156;2024-02-28T05:07:04;11.93;;;2.50;;
16113;SDS011;8161;-33.910;151.156;2024-02-28T05:09:33;13.32;;;2.83;;
16113;SDS011;8161;-33.910;151.156;2024-02-28T05:12:01;16.40;;;3.17;;
16113;SDS011;8161;-33.910;151.156;2024-02-28T05:14:32;14.68;;;3.03;;
16113;SDS011;8161;-33.910;151.156;2024-02-28T05:16:59;13.40;;;3.05;;
16113;SDS011;8161;-33.910;151.156;2024-02-28T05:19:26;12.20;;;3.00;;
16113;SDS011;8161;-33.910;151.156;2024-02-28T05:21:53;15.77;;;3.70;;
16113;SDS011;8161;-33.910;151.156;2024-02-28T05:24:20;12.65;;;2.92;;
16113;SDS011;8161;-33.910;151.156;2024-02-28T05:26:48;11.57;;;3.08;;
16113;SDS011;8161;-33.910;151.156;2024-02-28T05:29:15;12.27;;;3.00;;
16113;SDS011;8161;-33.910;151.156;2024-02-28T05:31:42;13.70;;;2.97;;
16113;SDS011;8161;-33.910;151.156;2024-02-28T05:34:09;12.70;;;2.92;;
16113;SDS011;8161;-33.910;151.156;2024-02-28T05:36:40;14.32;;;3.25;;
16113;SDS011;8161;-33.910;151.156;2024-02-28T05:39:10;12.40;;;2.95;;
16113;SDS011;8161;-33.910;151.156;2024-02-28T05:41:38;11.43;;;2.83;;
16113;SDS011;8161;-33.910;151.156;2024-02-28T05:44:05;12.85;;;2.60;;
16113;SDS011;8161;-33.910;151.156;2024-02-28T05:46:32;12.70;;;3.37;;
16113;SDS011;8161;-33.910;151.156;2024-02-28T05:48:59;13.07;;;2.95;;
16113;SDS011;8161;-33.910;151.156;2024-02-28T05:51:26;11.10;;;2.90;;
16113;SDS011;8161;-33.910;151.156;2024-02-28T05:53:54;13.70;;;3.38;;
16113;SDS011;8161;-33.910;151.156;2024-02-28T05:56:21;11.60;;;3.03;;
16113;SDS011;8161;-33.910;151.156;2024-02-28T05:58:48;12.38;;;2.90;;
16113;SDS011;8161;-33.910;151.156;2024-02-28T06:01:16;13.75;;;3.30;;
16113;SDS011;8161;-33.910;151.156;2024-02-28T06:03:47;16.10;;;3.70;;
16113;SDS011;8161;-33.910;151.156;2024-02-28T06:06:16;14.85;;;3.20;;
16113;SDS011;8161;-33.910;151.156;2024-02-28T06:08:44;13.15;;;2.83;;
16113;SDS011;8161;-33.910;151.156;2024-02-28T06:11:11;11.27;;;2.90;;
16113;SDS011;8161;-33.910;151.156;2024-02-28T06:13:40;11.27;;;3.00;;
16113;SDS011;8161;-33.910;151.156;2024-02-28T06:16:07;10.77;;;2.78;;
16113;SDS011;8161;-33.910;151.156;2024-02-28T06:18:40;13.15;;;2.70;;
16113;SDS011;8161;-33.910;151.156;2024-02-28T06:21:07;17.38;;;3.33;;
16113;SDS011;8161;-33.910;151.156;2024-02-28T06:23:38;11.15;;;3.13;;
16113;SDS011;8161;-33.910;151.156;2024-02-28T06:26:05;10.68;;;2.67;;
16113;SDS011;8161;-33.910;151.156;2024-02-28T06:28:32;14.55;;;3.05;;
16113;SDS011;8161;-33.910;151.156;2024-02-28T06:31:00;12.02;;;2.50;;
16113;SDS011;8161;-33.910;151.156;2024-02-28T06:33:27;14.02;;;3.03;;
16113;SDS011;8161;-33.910;151.156;2024-02-28T06:35:54;15.02;;;2.92;;
16113;SDS011;8161;-33.910;151.156;2024-02-28T06:38:22;18.67;;;3.30;;
16113;SDS011;8161;-33.910;151.156;2024-02-28T06:40:50;14.57;;;2.87;;
16113;SDS011;8161;-33.910;151.156;2024-02-28T06:43:17;11.30;;;2.90;;
16113;SDS011;8161;-33.910;151.156;2024-02-28T06:45:44;16.75;;;3.20;;
16113;SDS011;8161;-33.910;151.156;2024-02-28T06:48:12;12.65;;;2.85;;
16113;SDS011;8161;-33.910;151.156;2024-02-28T06:50:39;13.00;;;2.78;;
16113;SDS011;8161;-33.910;151.156;2024-02-28T06:53:06;15.63;;;3.63;;
16113;SDS011;8161;-33.910;151.156;2024-02-28T06:55:34;9.85;;;2.55;;
16113;SDS011;8161;-33.910;151.156;2024-02-28T06:58:02;14.00;;;3.33;;
16113;SDS011;8161;-33.910;151.156;2024-02-28T07:00:29;15.93;;;2.90;;
16113;SDS011;8161;-33.910;151.156;2024-02-28T07:02:56;11.15;;;2.80;;
16113;SDS011;8161;-33.910;151.156;2024-02-28T07:05:23;12.85;;;3.15;;
16113;SDS011;8161;-33.910;151.156;2024-02-28T07:07:51;18.35;;;3.72;;
16113;SDS011;8161;-33.910;151.156;2024-02-28T07:10:18;17.33;;;3.38;;
16113;SDS011;8161;-33.910;151.156;2024-02-28T07:12:46;16.13;;;3.30;;
16113;SDS011;8161;-33.910;151.156;2024-02-28T07:15:13;15.05;;;3.53;;
16113;SDS011;8161;-33.910;151.156;2024-02-28T07:17:40;15.25;;;3.25;;
16113;SDS011;8161;-33.910;151.156;2024-02-28T07:20:08;14.57;;;3.38;;
16113;SDS011;8161;-33.910;151.156;2024-02-28T07:22:35;13.45;;;3.00;;
16113;SDS011;8161;-33.910;151.156;2024-02-28T07:25:03;14.73;;;3.70;;
16113;SDS011;8161;-33.910;151.156;2024-02-28T07:27:32;14.02;;;2.97;;
16113;SDS011;8161;-33.910;151.156;2024-02-28T07:30:01;16.63;;;3.83;;
16113;SDS011;8161;-33.910;151.156;2024-02-28T07:32:32;15.80;;;3.20;;
16113;SDS011;8161;-33.910;151.156;2024-02-28T07:35:00;14.57;;;3.53;;
16113;SDS011;8161;-33.910;151.156;2024-02-28T07:37:28;20.20;;;3.80;;
16113;SDS011;8161;-33.910;151.156;2024-02-28T07:39:56;15.30;;;3.60;;
16113;SDS011;8161;-33.910;151.156;2024-02-28T07:42:23;16.98;;;4.40;;
16113;SDS011;8161;-33.910;151.156;2024-02-28T07:44:50;14.32;;;3.85;;
16113;SDS011;8161;-33.910;151.156;2024-02-28T07:47:22;16.95;;;3.13;;
16113;SDS011;8161;-33.910;151.156;2024-02-28T07:49:50;11.30;;;2.60;;
16113;SDS011;8161;-33.910;151.156;2024-02-28T07:52:19;16.58;;;3.75;;
16113;SDS011;8161;-33.910;151.156;2024-02-28T07:54:46;16.27;;;3.55;;
16113;SDS011;8161;-33.910;151.156;2024-02-28T07:57:14;17.58;;;3.50;;
16113;SDS011;8161;-33.910;151.156;2024-02-28T07:59:41;16.87;;;3.43;;
16113;SDS011;8161;-33.910;151.156;2024-02-28T08:02:09;20.43;;;3.30;;
16113;SDS011;8161;-33.910;151.156;2024-02-28T08:04:39;15.50;;;3.63;;
16113;SDS011;8161;-33.910;151.156;2024-02-28T08:07:07;18.48;;;3.42;;
16113;SDS011;8161;-33.910;151.156;2024-02-28T08:09:34;18.48;;;3.92;;
16113;SDS011;8161;-33.910;151.156;2024-02-28T08:12:01;17.17;;;3.15;;
16113;SDS011;8161;-33.910;151.156;2024-02-28T08:14:28;14.68;;;3.42;;
16113;SDS011;8161;-33.910;151.156;2024-02-28T08:16:55;18.98;;;4.45;;
16113;SDS011;8161;-33.910;151.156;2024-02-28T08:19:23;12.15;;;3.45;;
16113;SDS011;8161;-33.910;151.156;2024-02-28T08:21:50;16.63;;;3.75;;
16113;SDS011;8161;-33.910;151.156;2024-02-28T08:24:17;15.07;;;3.42;;
16113;SDS011;8161;-33.910;151.156;2024-02-28T08:26:44;14.77;;;3.37;;
16113;SDS011;8161;-33.910;151.156;2024-02-28T08:29:11;15.23;;;4.20;;
16113;SDS011;8161;-33.910;151.156;2024-02-28T08:31:39;16.15;;;3.13;;
16113;SDS011;8161;-33.910;151.156;2024-02-28T08:34:07;19.27;;;3.65;;
16113;SDS011;8161;-33.910;151.156;2024-02-28T08:36:35;14.13;;;3.33;;
16113;SDS011;8161;-33.910;151.156;2024-02-28T08:39:02;16.00;;;3.33;;
16113;SDS011;8161;-33.910;151.156;2024-02-28T08:41:34;14.30;;;2.92;;
16113;SDS011;8161;-33.910;151.156;2024-02-28T08:44:02;15.37;;;3.40;;
16113;SDS011;8161;-33.910;151.156;2024-02-28T08:46:29;14.30;;;3.40;;
16113;SDS011;8161;-33.910;151.156;2024-02-28T08:48:56;18.00;;;3.22;;
16113;SDS011;8161;-33.910;151.156;2024-02-28T08:51:24;16.73;;;3.30;;
16113;SDS011;8161;-33.910;151.156;2024-02-28T08:53:52;14.53;;;3.00;;
16113;SDS011;8161;-33.910;151.156;2024-02-28T08:56:21;19.13;;;3.67;;
16113;SDS011;8161;-33.910;151.156;2024-02-28T08:58:48;17.88;;;3.28;;
16113;SDS011;8161;-33.910;151.156;2024-02-28T09:01:15;14.90;;;3.47;;
16113;SDS011;8161;-33.910;151.156;2024-02-28T09:03:42;17.73;;;3.38;;
16113;SDS011;8161;-33.910;151.156;2024-02-28T09:06:10;15.18;;;3.22;;
16113;SDS011;8161;-33.910;151.156;2024-02-28T09:08:37;16.98;;;3.42;;
16113;SDS011;8161;-33.910;151.156;2024-02-28T09:11:04;13.95;;;3.00;;
16113;SDS011;8161;-33.910;151.156;2024-02-28T09:13:31;16.80;;;3.38;;
16113;SDS011;8161;-33.910;151.156;2024-02-28T09:16:01;18.02;;;4.05;;
16113;SDS011;8161;-33.910;151.156;2024-02-28T09:18:30;18.38;;;3.60;;
16113;SDS011;8161;-33.910;151.156;2024-02-28T09:20:57;13.98;;;3.28;;
16113;SDS011;8161;-33.910;151.156;2024-02-28T09:23:24;15.53;;;3.93;;
16113;SDS011;8161;-33.910;151.156;2024-02-28T09:25:52;12.82;;;2.92;;
16113;SDS011;8161;-33.910;151.156;2024-02-28T09:28:21;16.23;;;3.35;;
16113;SDS011;8161;-33.910;151.156;2024-02-28T09:30:48;17.70;;;3.53;;
16113;SDS011;8161;-33.910;151.156;2024-02-28T09:33:16;17.17;;;3.20;;
16113;SDS011;8161;-33.910;151.156;2024-02-28T09:35:45;16.63;;;3.20;;
16113;SDS011;8161;-33.910;151.156;2024-02-28T09:38:12;15.93;;;3.38;;
16113;SDS011;8161;-33.910;151.156;2024-02-28T09:40:39;17.08;;;3.13;;
16113;SDS011;8161;-33.910;151.156;2024-02-28T09:43:11;21.17;;;3.80;;
16113;SDS011;8161;-33.910;151.156;2024-02-28T09:45:46;20.73;;;3.35;;
16113;SDS011;8161;-33.910;151.156;2024-02-28T09:48:13;18.75;;;3.75;;
16113;SDS011;8161;-33.910;151.156;2024-02-28T09:50:43;19.80;;;3.90;;
16113;SDS011;8161;-33.910;151.156;2024-02-28T09:53:11;22.90;;;4.05;;
16113;SDS011;8161;-33.910;151.156;2024-02-28T09:55:38;23.77;;;3.90;;
16113;SDS011;8161;-33.910;151.156;2024-02-28T09:58:05;17.45;;;3.15;;
16113;SDS011;8161;-33.910;151.156;2024-02-28T10:00:34;16.05;;;3.45;;
16113;SDS011;8161;-33.910;151.156;2024-02-28T10:03:03;18.88;;;3.67;;
16113;SDS011;8161;-33.910;151.156;2024-02-28T10:05:33;15.55;;;3.47;;
16113;SDS011;8161;-33.910;151.156;2024-02-28T10:08:01;17.55;;;4.03;;
16113;SDS011;8161;-33.910;151.156;2024-02-28T10:10:28;17.58;;;5.07;;
16113;SDS011;8161;-33.910;151.156;2024-02-28T10:12:56;25.20;;;7.60;;
16113;SDS011;8161;-33.910;151.156;2024-02-28T10:15:27;24.63;;;9.98;;
16113;SDS011;8161;-33.910;151.156;2024-02-28T10:17:54;26.23;;;9.90;;
16113;SDS011;8161;-33.910;151.156;2024-02-28T10:20:21;27.17;;;11.45;;
16113;SDS011;8161;-33.910;151.156;2024-02-28T10:22:49;25.73;;;8.93;;
16113;SDS011;8161;-33.910;151.156;2024-02-28T10:25:19;27.98;;;7.53;;
16113;SDS011;8161;-33.910;151.156;2024-02-28T10:27:46;20.80;;;6.93;;
16113;SDS011;8161;-33.910;151.156;2024-02-28T10:30:13;19.20;;;6.18;;
16113;SDS011;8161;-33.910;151.156;2024-02-28T10:32:49;22.52;;;4.75;;
16113;SDS011;8161;-33.910;151.156;2024-02-28T10:35:19;22.13;;;4.95;;
16113;SDS011;8161;-33.910;151.156;2024-02-28T10:37:51;17.98;;;4.00;;
16113;SDS011;8161;-33.910;151.156;2024-02-28T10:40:20;21.50;;;4.03;;
16113;SDS011;8161;-33.910;151.156;2024-02-28T10:42:48;18.98;;;3.92;;
16113;SDS011;8161;-33.910;151.156;2024-02-28T10:45:17;17.05;;;3.40;;
16113;SDS011;8161;-33.910;151.156;2024-02-28T10:47:45;18.92;;;3.38;;
16113;SDS011;8161;-33.910;151.156;2024-02-28T10:50:16;17.45;;;3.33;;
16113;SDS011;8161;-33.910;151.156;2024-02-28T10:52:44;21.47;;;4.00;;
16113;SDS011;8161;-33.910;151.156;2024-02-28T10:55:12;15.63;;;3.27;;
16113;SDS011;8161;-33.910;151.156;2024-02-28T10:57:42;16.10;;;3.38;;
16113;SDS011;8161;-33.910;151.156;2024-02-28T11:00:12;23.08;;;4.65;;
16113;SDS011;8161;-33.910;151.156;2024-02-28T11:02:46;18.70;;;3.80;;
16113;SDS011;8161;-33.910;151.156;2024-02-28T11:05:14;16.38;;;3.42;;
16113;SDS011;8161;-33.910;151.156;2024-02-28T11:07:42;21.85;;;3.90;;
16113;SDS011;8161;-33.910;151.156;2024-02-28T11:10:09;17.80;;;3.47;;
16113;SDS011;8161;-33.910;151.156;2024-02-28T11:12:39;21.05;;;4.82;;
16113;SDS011;8161;-33.910;151.156;2024-02-28T11:15:15;19.30;;;3.67;;
16113;SDS011;8161;-33.910;151.156;2024-02-28T11:17:43;19.52;;;3.85;;
16113;SDS011;8161;-33.910;151.156;2024-02-28T11:20:13;19.85;;;4.10;;
16113;SDS011;8161;-33.910;151.156;2024-02-28T11:22:41;17.05;;;3.78;;
16113;SDS011;8161;-33.910;151.156;2024-02-28T11:25:09;18.70;;;3.50;;
16113;SDS011;8161;-33.910;151.156;2024-02-28T11:27:46;26.77;;;4.73;;
16113;SDS011;8161;-33.910;151.156;2024-02-28T11:30:16;20.58;;;3.85;;
16113;SDS011;8161;-33.910;151.156;2024-02-28T11:32:44;17.27;;;3.78;;
16113;SDS011;8161;-33.910;151.156;2024-02-28T11:35:12;20.85;;;3.60;;
16113;SDS011;8161;-33.910;151.156;2024-02-28T11:37:40;15.43;;;3.60;;
16113;SDS011;8161;-33.910;151.156;2024-02-28T11:40:07;21.30;;;3.80;;
16113;SDS011;8161;-33.910;151.156;2024-02-28T11:42:38;19.77;;;3.53;;
16113;SDS011;8161;-33.910;151.156;2024-02-28T11:45:05;18.38;;;3.53;;
16113;SDS011;8161;-33.910;151.156;2024-02-28T11:47:36;19.10;;;3.58;;
16113;SDS011;8161;-33.910;151.156;2024-02-28T11:50:04;18.67;;;3.50;;
16113;SDS011;8161;-33.910;151.156;2024-02-28T11:52:32;17.05;;;3.50;;
16113;SDS011;8161;-33.910;151.156;2024-02-28T11:54:59;16.75;;;3.88;;
16113;SDS011;8161;-33.910;151.156;2024-02-28T11:57:27;16.83;;;3.83;;
16113;SDS011;8161;-33.910;151.156;2024-02-28T12:00:02;21.73;;;4.22;;
16113;SDS011;8161;-33.910;151.156;2024-02-28T12:02:33;18.83;;;3.53;;
16113;SDS011;8161;-33.910;151.156;2024-02-28T12:05:01;14.98;;;3.55;;
16113;SDS011;8161;-33.910;151.156;2024-02-28T12:07:32;18.17;;;3.93;;
16113;SDS011;8161;-33.910;151.156;2024-02-28T12:09:59;17.98;;;3.42;;
16113;SDS011;8161;-33.910;151.156;2024-02-28T12:12:27;18.33;;;3.97;;
16113;SDS011;8161;-33.910;151.156;2024-02-28T12:14:58;24.30;;;4.50;;
16113;SDS011;8161;-33.910;151.156;2024-02-28T12:17:26;21.48;;;3.75;;
16113;SDS011;8161;-33.910;151.156;2024-02-28T12:19:53;15.27;;;3.65;;
16113;SDS011;8161;-33.910;151.156;2024-02-28T12:22:21;18.47;;;4.23;;
16113;SDS011;8161;-33.910;151.156;2024-02-28T12:24:48;17.47;;;3.43;;
16113;SDS011;8161;-33.910;151.156;2024-02-28T12:27:15;21.73;;;3.88;;
16113;SDS011;8161;-33.910;151.156;2024-02-28T12:29:43;17.52;;;3.50;;
16113;SDS011;8161;-33.910;151.156;2024-02-28T12:32:10;20.83;;;3.60;;
16113;SDS011;8161;-33.910;151.156;2024-02-28T12:34:38;26.02;;;4.93;;
16113;SDS011;8161;-33.910;151.156;2024-02-28T12:37:05;20.60;;;3.70;;
16113;SDS011;8161;-33.910;151.156;2024-02-28T12:39:32;17.73;;;3.65;;
16113;SDS011;8161;-33.910;151.156;2024-02-28T12:42:00;20.90;;;3.97;;
16113;SDS011;8161;-33.910;151.156;2024-02-28T12:44:27;17.58;;;3.35;;
16113;SDS011;8161;-33.910;151.156;2024-02-28T12:46:55;22.23;;;4.17;;
16113;SDS011;8161;-33.910;151.156;2024-02-28T12:49:22;17.38;;;3.55;;
16113;SDS011;8161;-33.910;151.156;2024-02-28T12:51:50;17.15;;;3.20;;
16113;SDS011;8161;-33.910;151.156;2024-02-28T12:54:17;17.47;;;3.83;;
16113;SDS011;8161;-33.910;151.156;2024-02-28T12:56:47;22.98;;;3.92;;
16113;SDS011;8161;-33.910;151.156;2024-02-28T12:59:15;20.10;;;3.83;;
16113;SDS011;8161;-33.910;151.156;2024-02-28T13:01:42;18.10;;;3.80;;
16113;SDS011;8161;-33.910;151.156;2024-02-28T13:04:09;16.37;;;3.30;;
16113;SDS011;8161;-33.910;151.156;2024-02-28T13:06:37;19.63;;;3.97;;
16113;SDS011;8161;-33.910;151.156;2024-02-28T13:09:05;19.60;;;3.58;;
16113;SDS011;8161;-33.910;151.156;2024-02-28T13:11:37;20.45;;;4.05;;
16113;SDS011;8161;-33.910;151.156;2024-02-28T13:14:05;19.35;;;3.60;;
16113;SDS011;8161;-33.910;151.156;2024-02-28T13:16:34;21.63;;;4.38;;
16113;SDS011;8161;-33.910;151.156;2024-02-28T13:19:01;19.42;;;3.90;;
16113;SDS011;8161;-33.910;151.156;2024-02-28T13:21:30;22.20;;;3.97;;
16113;SDS011;8161;-33.910;151.156;2024-02-28T13:23:58;20.63;;;4.22;;
16113;SDS011;8161;-33.910;151.156;2024-02-28T13:26:29;24.45;;;4.15;;
16113;SDS011;8161;-33.910;151.156;2024-02-28T13:28:56;17.40;;;3.65;;
16113;SDS011;8161;-33.910;151.156;2024-02-28T13:31:24;19.45;;;3.88;;
16113;SDS011;8161;-33.910;151.156;2024-02-28T13:33:51;21.27;;;3.65;;
16113;SDS011;8161;-33.910;151.156;2024-02-28T13:36:18;16.90;;;3.53;;
16113;SDS011;8161;-33.910;151.156;2024-02-28T13:38:46;22.67;;;4.50;;
16113;SDS011;8161;-33.910;151.156;2024-02-28T13:41:13;18.30;;;3.85;;
16113;SDS011;8161;-33.910;151.156;2024-02-28T13:43:41;18.30;;;3.88;;
16113;SDS011;8161;-33.910;151.156;2024-02-28T13:46:09;16.83;;;3.67;;
16113;SDS011;8161;-33.910;151.156;2024-02-28T13:48:36;17.08;;;3.65;;
16113;SDS011;8161;-33.910;151.156;2024-02-28T13:51:03;17.67;;;3.73;;
16113;SDS011;8161;-33.910;151.156;2024-02-28T13:53:31;21.17;;;3.78;;
16113;SDS011;8161;-33.910;151.156;2024-02-28T13:55:58;17.25;;;3.53;;
16113;SDS011;8161;-33.910;151.156;2024-02-28T13:58:26;19.77;;;3.80;;
16113;SDS011;8161;-33.910;151.156;2024-02-28T14:00:53;22.63;;;4.07;;
16113;SDS011;8161;-33.910;151.156;2024-02-28T14:03:21;23.13;;;4.10;;
16113;SDS011;8161;-33.910;151.156;2024-02-28T14:05:50;19.27;;;4.10;;
16113;SDS011;8161;-33.910;151.156;2024-02-28T14:08:18;24.00;;;4.03;;
16113;SDS011;8161;-33.910;151.156;2024-02-28T14:10:45;21.30;;;5.28;;
16113;SDS011;8161;-33.910;151.156;2024-02-28T14:13:12;20.15;;;3.92;;